This is the latest recevied weather packets stored in our database for station/object AK6MW. If no packets are shown the sender has not sent any weather packets the latest 10 day(s).
| Time | Temp. | Humidity | Pressure | Rain* | Wind** | Luminosity | Snow |
|---|---|---|---|---|---|---|---|
| 1777492125 | 16.11° C | 60% | 1018.5 hPa | - | - | - | - |
| 1777491527 | 15.56° C | 61% | 1018.8 hPa | - | - | - | - |
| 1777487327 | 13.33° C | 63% | 1019.3 hPa | - | - | - | - |
| 1777484326 | 13.33° C | 66% | 1019.2 hPa | - | - | - | - |
| 1777483727 | 13.33° C | 67% | 1019.2 hPa | - | - | - | - |
| 1777481925 | 14.44° C | 60% | 1019.6 hPa | - | - | - | - |
| 1777480725 | 13.89° C | 62% | 1019.3 hPa | - | - | - | - |
| 1777465725 | 0° C | 99% | 1019.8 hPa | - | - | - | - |
| 1777463324 | 1.11° C | 99% | 1020 hPa | - | - | - | - |
| 1777462725 | 1.11° C | 99% | 1019.7 hPa | - | - | - | - |
| 1777456147 | 2.78° C | 99% | 1019.3 hPa | - | - | - | - |
| 1777454926 | 2.78° C | 99% | 1019.4 hPa | - | - | - | - |
| 1777451950 | 3.33° C | 99% | 1020.2 hPa | - | - | - | - |
| 1777450746 | 3.89° C | 98% | 1020.1 hPa | - | - | - | - |
| 1777450124 | 3.89° C | 98% | 1020.2 hPa | - | - | - | - |
| 1777447725 | 4.44° C | 98% | 1020.2 hPa | - | - | - | - |
| 1777433926 | 7.78° C | 86% | 1019.3 hPa | - | - | - | - |
| 1777431524 | 9.44° C | 79% | 1019 hPa | - | - | - | - |
| 1777429127 | 11.11° C | 71% | 1018.8 hPa | - | - | - | - |
| 1777426124 | 12.22° C | 67% | 1018.9 hPa | - | - | - | - |
| 1777421324 | 13.89° C | 62% | 1018.2 hPa | - | - | - | - |
| 1777420124 | 13.89° C | 63% | 1018.4 hPa | - | - | - | - |
| 1777418325 | 14.44° C | 66% | 1018.1 hPa | - | - | - | - |
| 1777409323 | 13.33° C | 66% | 1018.8 hPa | - | - | - | - |
| 1777408723 | 12.78° C | 69% | 1018.8 hPa | - | - | - | - |
* Rain since midnight (hover to see other rain measurements)
** Current wind speed in m/s (hover to see current wind gust speed)